createdAt,value
2022-10-04T00:00:40.558Z,77.19
2022-10-04T00:02:48.320Z,76.74
2022-10-04T00:04:57.738Z,76.42
2022-10-04T00:07:06.692Z,76.71
2022-10-04T00:09:18.350Z,76.51
2022-10-04T00:11:26.343Z,75.78
2022-10-04T00:13:30.787Z,76.86
2022-10-04T00:15:37.232Z,76.64
2022-10-04T00:17:39.994Z,76.74
2022-10-04T00:19:47.053Z,76.00
2022-10-04T00:22:18.277Z,76.92
2022-10-04T00:24:22.941Z,76.05
2022-10-04T00:27:13.649Z,76.22
2022-10-04T00:29:32.677Z,76.41
2022-10-04T00:31:55.640Z,76.49
2022-10-04T00:34:39.294Z,76.68
2022-10-04T00:36:56.244Z,76.41
2022-10-04T00:39:19.412Z,76.35
2022-10-04T00:41:23.004Z,77.07
2022-10-04T00:43:30.330Z,76.86
2022-10-04T00:45:38.041Z,76.65
2022-10-04T00:48:02.584Z,76.01
2022-10-04T00:50:16.623Z,76.61
2022-10-04T00:52:26.716Z,76.28
2022-10-04T00:54:35.097Z,76.14
2022-10-04T00:56:44.004Z,75.90
2022-10-04T00:59:03.705Z,75.91
2022-10-04T01:01:07.009Z,75.92
2022-10-04T01:03:15.031Z,76.33
2022-10-04T01:05:22.239Z,76.51
2022-10-04T01:07:30.339Z,76.29
2022-10-04T01:09:37.679Z,76.57
2022-10-04T01:11:45.937Z,76.08
2022-10-04T01:13:52.394Z,76.08
2022-10-04T01:16:00.638Z,76.20
2022-10-04T01:18:17.636Z,76.06
2022-10-04T01:20:33.626Z,75.81
2022-10-04T01:22:43.011Z,75.84
2022-10-04T01:24:46.316Z,76.22
2022-10-04T01:26:49.382Z,76.26
2022-10-04T01:28:52.325Z,76.86
2022-10-04T01:30:55.928Z,75.95
2022-10-04T01:32:58.760Z,75.63
2022-10-04T01:35:01.595Z,75.68
2022-10-04T01:37:04.480Z,76.17
2022-10-04T01:39:09.417Z,76.01
2022-10-04T01:41:15.753Z,75.70
2022-10-04T01:43:28.857Z,76.33
2022-10-04T01:45:38.515Z,76.23
2022-10-04T01:47:45.543Z,76.21
2022-10-04T01:49:49.852Z,76.25
2022-10-04T01:51:58.389Z,75.86
2022-10-04T01:54:06.903Z,75.77
2022-10-04T01:56:15.032Z,75.71
2022-10-04T01:58:22.187Z,75.95
2022-10-04T02:00:25.355Z,75.56
2022-10-04T02:02:36.326Z,75.76
2022-10-04T02:04:41.534Z,76.40
2022-10-04T02:06:47.121Z,75.74
2022-10-04T02:08:53.415Z,76.00
2022-10-04T02:10:57.366Z,76.36
2022-10-04T02:13:02.020Z,75.78
2022-10-04T02:15:08.570Z,76.05
2022-10-04T02:17:13.264Z,75.98
2022-10-04T02:19:17.005Z,75.58
2022-10-04T02:21:21.112Z,75.78
2022-10-04T02:23:25.168Z,76.08
2022-10-04T02:25:28.221Z,76.12
2022-10-04T02:27:31.570Z,75.91
2022-10-04T02:29:36.049Z,75.88
2022-10-04T02:31:57.990Z,76.52
2022-10-04T02:34:01.407Z,76.62
2022-10-04T02:36:05.762Z,76.46
2022-10-04T02:38:14.701Z,76.76
2022-10-04T02:40:20.176Z,76.74
2022-10-04T02:42:37.760Z,76.97
2022-10-04T02:44:45.855Z,76.86
2022-10-04T02:46:53.011Z,76.57
2022-10-04T02:48:59.146Z,76.35
2022-10-04T02:51:15.607Z,76.43
2022-10-04T02:53:26.537Z,76.21
2022-10-04T02:55:31.700Z,76.98
2022-10-04T02:57:36.228Z,77.01
2022-10-04T02:59:40.551Z,76.77
2022-10-04T03:01:52.051Z,76.82
2022-10-04T03:03:56.953Z,76.68
2022-10-04T03:06:02.337Z,76.40
2022-10-04T03:08:05.845Z,75.88
2022-10-04T03:10:11.932Z,75.67
2022-10-04T03:12:15.907Z,76.05
2022-10-04T03:14:21.310Z,75.91
2022-10-04T03:16:24.991Z,75.48
2022-10-04T03:18:31.249Z,75.35
2022-10-04T03:20:38.142Z,75.61
2022-10-04T03:22:46.100Z,75.97
2022-10-04T03:24:53.512Z,75.83
2022-10-04T03:26:59.788Z,75.99
2022-10-04T03:29:02.925Z,76.11
2022-10-04T03:31:06.328Z,75.91
2022-10-04T03:33:09.198Z,76.10
2022-10-04T03:35:29.037Z,76.36
2022-10-04T03:37:35.816Z,76.35
2022-10-04T03:39:41.595Z,75.78
2022-10-04T03:41:44.803Z,75.86
2022-10-04T03:43:50.368Z,75.51
2022-10-04T03:45:54.163Z,75.41
2022-10-04T03:48:03.080Z,75.94
2022-10-04T03:50:15.391Z,76.17
2022-10-04T03:52:23.955Z,76.49
2022-10-04T03:54:28.137Z,76.78
2022-10-04T03:56:33.958Z,76.79
2022-10-04T03:58:37.242Z,77.04
2022-10-04T04:00:45.328Z,76.94
2022-10-04T04:02:52.062Z,77.07
2022-10-04T04:05:05.084Z,77.03
2022-10-04T04:07:14.106Z,76.67
2022-10-04T04:09:24.589Z,77.09
2022-10-04T04:11:28.709Z,76.74
2022-10-04T04:13:39.569Z,76.73
2022-10-04T04:15:45.478Z,76.75
2022-10-04T04:17:52.303Z,77.01
2022-10-04T04:19:58.425Z,77.03
2022-10-04T04:22:01.382Z,77.11
2022-10-04T04:24:09.944Z,76.99
2022-10-04T04:26:23.024Z,77.21
2022-10-04T04:28:29.915Z,77.12
2022-10-04T04:30:35.386Z,77.34
2022-10-04T04:32:43.263Z,77.24
2022-10-04T04:34:52.773Z,77.47
2022-10-04T04:37:00.120Z,77.48
2022-10-04T04:39:28.001Z,76.99
2022-10-04T04:41:35.951Z,77.36
2022-10-04T04:43:44.500Z,76.83
2022-10-04T04:46:02.931Z,76.25
2022-10-04T04:48:15.645Z,76.28
2022-10-04T04:50:20.804Z,76.29
2022-10-04T04:52:33.819Z,76.78
2022-10-04T04:54:36.642Z,76.73
2022-10-04T04:56:43.130Z,77.13
2022-10-04T04:58:49.054Z,76.91
2022-10-04T05:00:57.963Z,76.88
2022-10-04T05:03:02.855Z,77.31
2022-10-04T05:05:16.037Z,77.80
2022-10-04T05:07:19.892Z,77.92
2022-10-04T05:09:25.751Z,77.75
2022-10-04T05:11:30.962Z,78.02
2022-10-04T05:13:40.036Z,77.97
2022-10-04T05:15:43.886Z,78.17
2022-10-04T05:17:46.982Z,78.51
2022-10-04T05:19:51.495Z,78.51
2022-10-04T05:21:56.631Z,78.55
2022-10-04T05:24:08.642Z,78.86
2022-10-04T05:26:13.676Z,79.32
2022-10-04T05:28:18.498Z,79.14
2022-10-04T05:30:27.227Z,79.92
2022-10-04T05:32:45.088Z,79.73
2022-10-04T05:34:51.003Z,80.17
2022-10-04T05:37:23.535Z,79.63
2022-10-04T05:39:29.356Z,79.92
2022-10-04T05:41:41.946Z,79.76
2022-10-04T05:43:47.075Z,79.76
2022-10-04T05:46:19.391Z,79.00
2022-10-04T05:48:22.376Z,79.47
2022-10-04T05:50:31.366Z,78.53
2022-10-04T05:52:36.989Z,78.59
2022-10-04T05:54:39.831Z,78.79
2022-10-04T05:57:08.188Z,78.36
2022-10-04T05:59:26.495Z,78.16
2022-10-04T06:01:44.052Z,78.32
2022-10-04T06:04:04.393Z,77.71
2022-10-04T06:06:17.242Z,77.85
2022-10-04T06:08:32.265Z,77.72
2022-10-04T06:10:50.488Z,77.40
2022-10-04T06:12:58.467Z,77.89
2022-10-04T06:15:14.224Z,77.92
2022-10-04T06:17:39.386Z,78.04
2022-10-04T06:20:06.202Z,78.11
2022-10-04T06:22:17.187Z,78.22
2022-10-04T06:24:27.161Z,77.85
2022-10-04T06:26:40.441Z,78.04
2022-10-04T06:28:47.687Z,78.35
2022-10-04T06:31:08.854Z,78.04
2022-10-04T06:33:35.985Z,78.31
2022-10-04T06:36:22.041Z,78.43
2022-10-04T06:39:04.219Z,78.53
2022-10-04T06:41:34.752Z,78.75
2022-10-04T06:44:02.553Z,79.05
2022-10-04T06:46:22.062Z,78.65
2022-10-04T06:48:56.704Z,78.19
2022-10-04T06:51:09.129Z,78.89
2022-10-04T06:53:20.562Z,78.75
2022-10-04T06:55:48.568Z,78.62
2022-10-04T06:58:34.525Z,78.03
2022-10-04T07:00:45.957Z,78.91
2022-10-04T07:02:53.992Z,78.74
2022-10-04T07:05:08.512Z,79.13
2022-10-04T07:07:34.883Z,78.50
2022-10-04T07:09:38.140Z,79.21
2022-10-04T07:11:50.197Z,79.28
2022-10-04T07:13:57.591Z,78.92
2022-10-04T07:16:06.504Z,79.50
2022-10-04T07:18:15.166Z,79.17
2022-10-04T07:20:24.276Z,79.58
2022-10-04T07:22:31.355Z,79.45
2022-10-04T07:24:47.724Z,79.45
2022-10-04T07:26:53.342Z,78.87
2022-10-04T07:29:16.998Z,79.01
2022-10-04T07:31:25.954Z,79.29
2022-10-04T07:33:32.418Z,79.22
2022-10-04T07:35:44.859Z,79.48
2022-10-04T07:37:53.347Z,79.39
2022-10-04T07:40:03.203Z,78.53
2022-10-04T07:42:15.142Z,78.82
2022-10-04T07:44:27.828Z,78.73
2022-10-04T07:46:45.105Z,79.05
2022-10-04T07:48:49.261Z,79.32
2022-10-04T07:51:05.982Z,78.95
2022-10-04T07:53:13.176Z,78.38
2022-10-04T07:55:24.823Z,78.28
2022-10-04T07:57:31.801Z,78.06
2022-10-04T07:59:46.157Z,78.07
2022-10-04T08:02:01.758Z,78.72
2022-10-04T08:04:30.932Z,78.24
2022-10-04T08:06:39.849Z,78.37
2022-10-04T08:09:02.880Z,78.31
2022-10-04T08:11:30.098Z,77.52
2022-10-04T08:13:41.401Z,77.34
2022-10-04T08:15:45.563Z,77.78
2022-10-04T08:17:57.103Z,77.60
2022-10-04T08:20:14.388Z,77.89
2022-10-04T08:22:28.439Z,77.60
2022-10-04T08:24:36.547Z,77.10
2022-10-04T08:26:50.641Z,77.04
2022-10-04T08:29:19.965Z,77.50
2022-10-04T08:31:38.842Z,77.71
2022-10-04T08:34:03.864Z,77.19
2022-10-04T08:36:18.143Z,77.13
2022-10-04T08:38:43.008Z,77.28
2022-10-04T08:41:08.333Z,77.52
2022-10-04T08:43:40.633Z,77.04
2022-10-04T08:46:15.967Z,76.99
2022-10-04T08:48:51.398Z,76.58
2022-10-04T08:51:27.434Z,76.43
2022-10-04T08:54:02.053Z,77.32
2022-10-04T08:56:18.283Z,77.07
2022-10-04T08:58:41.862Z,76.50
2022-10-04T09:01:01.803Z,76.48
2022-10-04T09:03:31.512Z,76.43
2022-10-04T09:05:57.216Z,76.90
2022-10-04T09:08:32.497Z,76.34
2022-10-04T09:10:44.414Z,76.48
2022-10-04T09:12:57.553Z,76.95
2022-10-04T09:15:22.166Z,76.59
2022-10-04T09:17:39.910Z,76.50
2022-10-04T09:19:54.943Z,76.07
2022-10-04T09:22:18.805Z,75.50
2022-10-04T09:24:54.400Z,75.22
2022-10-04T09:27:12.105Z,73.78
2022-10-04T09:29:52.192Z,73.22
2022-10-04T09:32:25.251Z,73.26
2022-10-04T09:34:41.824Z,72.81
2022-10-04T09:37:07.238Z,72.84
2022-10-04T09:39:39.060Z,72.94
2022-10-04T09:42:16.008Z,73.00
2022-10-04T09:44:48.470Z,72.87
2022-10-04T09:47:16.808Z,72.52
2022-10-04T09:49:37.847Z,73.19
2022-10-04T09:52:15.536Z,72.80
2022-10-04T09:54:49.694Z,73.62
2022-10-04T09:57:09.792Z,73.43
2022-10-04T09:59:35.240Z,73.12
2022-10-04T10:01:44.534Z,72.13
2022-10-04T10:04:22.091Z,71.86
2022-10-04T10:06:41.591Z,71.50
2022-10-04T10:08:56.393Z,71.63
2022-10-04T10:11:27.706Z,71.21
2022-10-04T10:13:59.506Z,70.30
2022-10-04T10:16:12.764Z,71.06
2022-10-04T10:18:27.805Z,69.29
2022-10-04T10:21:05.804Z,70.17
2022-10-04T10:23:39.262Z,70.66
2022-10-04T10:25:53.542Z,70.88
2022-10-04T10:28:29.032Z,69.93
2022-10-04T10:30:46.989Z,69.82
2022-10-04T10:33:35.772Z,69.84
2022-10-04T10:36:01.043Z,69.95
2022-10-04T10:38:29.202Z,69.95
2022-10-04T10:40:53.541Z,69.43
2022-10-04T10:43:27.776Z,70.28
2022-10-04T10:45:48.509Z,69.30
2022-10-04T10:47:56.126Z,69.28
2022-10-04T10:50:18.310Z,69.77
2022-10-04T10:52:54.590Z,68.56
2022-10-04T10:55:26.917Z,68.20
2022-10-04T10:57:56.779Z,68.67
2022-10-04T11:00:21.900Z,67.89
2022-10-04T11:02:51.187Z,67.21
2022-10-04T11:05:10.087Z,66.29
2022-10-04T11:07:50.244Z,66.85
2022-10-04T11:10:21.828Z,66.63
2022-10-04T11:12:42.638Z,66.27
2022-10-04T11:15:15.104Z,65.93
2022-10-04T11:17:38.468Z,65.93
2022-10-04T11:20:05.557Z,66.63
2022-10-04T11:22:57.454Z,65.44
2022-10-04T11:25:25.356Z,65.64
2022-10-04T11:27:46.605Z,65.28
2022-10-04T11:30:04.173Z,65.54
2022-10-04T11:32:23.999Z,65.03
2022-10-04T11:35:03.448Z,64.76
2022-10-04T11:37:16.376Z,62.98
2022-10-04T11:39:45.904Z,63.15
2022-10-04T11:41:56.973Z,63.07
2022-10-04T11:44:35.320Z,63.43
2022-10-04T11:46:46.112Z,63.81
2022-10-04T11:49:04.996Z,63.76
2022-10-04T11:51:51.261Z,63.92
2022-10-04T11:54:24.323Z,64.43
2022-10-04T11:56:56.357Z,64.68
2022-10-04T11:59:15.298Z,65.10
2022-10-04T12:02:01.197Z,65.12
2022-10-04T12:04:27.125Z,64.89
2022-10-04T12:06:51.313Z,64.38
2022-10-04T12:09:11.813Z,62.79
2022-10-04T12:11:49.464Z,63.36
2022-10-04T12:14:09.310Z,62.69
2022-10-04T12:16:41.401Z,62.67
2022-10-04T12:19:25.676Z,63.09
2022-10-04T12:21:50.677Z,62.77
2022-10-04T12:24:21.366Z,63.21
2022-10-04T12:26:44.899Z,62.50
2022-10-04T12:29:20.501Z,62.29
2022-10-04T12:31:29.415Z,62.63
2022-10-04T12:33:39.727Z,61.91
2022-10-04T12:36:03.627Z,62.14
2022-10-04T12:38:37.384Z,62.69
2022-10-04T12:40:49.450Z,60.81
2022-10-04T12:42:59.682Z,60.29
2022-10-04T12:45:19.995Z,61.55
2022-10-04T12:47:48.133Z,61.44
2022-10-04T12:50:01.395Z,61.47
2022-10-04T12:52:12.025Z,60.06
2022-10-04T12:54:38.998Z,61.03
2022-10-04T12:56:50.616Z,61.73
2022-10-04T12:59:07.229Z,60.59
2022-10-04T13:01:24.918Z,60.39
2022-10-04T13:03:40.117Z,61.68
2022-10-04T13:05:55.714Z,61.28
2022-10-04T13:08:12.667Z,60.75
2022-10-04T13:10:33.198Z,60.32
2022-10-04T13:12:45.326Z,60.61
2022-10-04T13:15:01.881Z,59.89
2022-10-04T13:17:29.826Z,60.70
2022-10-04T13:19:50.105Z,60.76
2022-10-04T13:22:06.375Z,61.33
2022-10-04T13:24:16.172Z,61.48
2022-10-04T13:26:42.424Z,60.91
2022-10-04T13:28:53.856Z,60.73
2022-10-04T13:31:04.104Z,61.02
2022-10-04T13:33:19.689Z,61.06
2022-10-04T13:35:27.002Z,61.81
2022-10-04T13:37:37.359Z,60.62
2022-10-04T13:40:21.940Z,61.01
2022-10-04T13:42:36.731Z,61.22
2022-10-04T13:45:05.361Z,61.17
2022-10-04T13:47:24.016Z,61.04
2022-10-04T13:49:42.964Z,60.67
2022-10-04T13:52:20.587Z,61.14
2022-10-04T13:54:50.883Z,61.04
2022-10-04T13:57:15.864Z,60.20
2022-10-04T13:59:30.933Z,60.67
2022-10-04T14:01:59.259Z,61.31
2022-10-04T14:04:18.083Z,60.38
2022-10-04T14:06:58.890Z,60.79
2022-10-04T14:09:22.351Z,59.92
2022-10-04T14:11:54.032Z,60.01
2022-10-04T14:14:37.473Z,60.63
2022-10-04T14:17:01.048Z,61.58
2022-10-04T14:19:39.009Z,61.03
2022-10-04T14:22:13.406Z,61.16
2022-10-04T14:25:06.574Z,61.34
2022-10-04T14:27:43.301Z,61.89
2022-10-04T14:30:18.514Z,61.30
2022-10-04T14:32:51.034Z,61.30
2022-10-04T14:35:00.491Z,60.72
2022-10-04T14:37:28.296Z,60.62
2022-10-04T14:39:59.167Z,61.13
2022-10-04T14:42:23.772Z,60.31
2022-10-04T14:44:45.043Z,60.79
2022-10-04T14:47:00.478Z,60.93
2022-10-04T14:49:11.110Z,60.95
2022-10-04T14:51:26.515Z,60.87
2022-10-04T14:53:37.991Z,60.22
2022-10-04T14:55:58.491Z,60.56
2022-10-04T14:58:18.575Z,61.17
2022-10-04T15:00:23.620Z,60.37
2022-10-04T15:02:49.175Z,60.64
2022-10-04T15:05:05.181Z,60.26
2022-10-04T15:07:18.466Z,59.52
2022-10-04T15:09:34.242Z,59.39
2022-10-04T15:12:21.648Z,60.88
2022-10-04T15:14:35.606Z,60.80
2022-10-04T15:16:46.657Z,60.35
2022-10-04T15:18:57.101Z,60.19
2022-10-04T15:21:04.704Z,60.08
2022-10-04T15:23:17.395Z,59.79
2022-10-04T15:25:40.410Z,59.99
2022-10-04T15:27:53.233Z,60.82
2022-10-04T15:30:05.075Z,60.53
2022-10-04T15:32:24.163Z,60.25
2022-10-04T15:34:33.646Z,60.53
2022-10-04T15:37:03.650Z,60.56
2022-10-04T15:39:23.489Z,61.63
2022-10-04T15:41:37.528Z,60.65
2022-10-04T15:43:44.806Z,60.79
2022-10-04T15:46:25.221Z,61.10
2022-10-04T15:48:39.272Z,61.32
2022-10-04T15:51:01.074Z,60.86
2022-10-04T15:53:20.257Z,61.56
2022-10-04T15:55:32.000Z,62.13
2022-10-04T15:57:58.395Z,61.89
2022-10-04T16:00:15.185Z,61.91
2022-10-04T16:02:31.356Z,62.54
2022-10-04T16:04:44.720Z,62.45
2022-10-04T16:06:53.992Z,62.43
2022-10-04T16:09:19.569Z,62.21
2022-10-04T16:11:35.498Z,62.79
2022-10-04T16:13:56.764Z,62.87
2022-10-04T16:16:36.078Z,63.02
2022-10-04T16:18:51.218Z,63.50
2022-10-04T16:21:00.701Z,63.64
2022-10-04T16:23:24.999Z,63.89
2022-10-04T16:25:38.641Z,64.06
2022-10-04T16:27:57.933Z,64.26
2022-10-04T16:30:25.950Z,64.32
2022-10-04T16:32:38.818Z,64.43
2022-10-04T16:34:50.868Z,64.56
2022-10-04T16:36:59.700Z,65.01
2022-10-04T16:39:22.040Z,64.95
2022-10-04T16:41:34.886Z,64.71
2022-10-04T16:43:49.496Z,65.21
2022-10-04T16:46:10.853Z,65.04
2022-10-04T16:48:28.709Z,65.30
2022-10-04T16:51:25.176Z,65.67
2022-10-04T16:53:45.634Z,66.27
2022-10-04T16:55:54.076Z,66.71
2022-10-04T16:58:41.348Z,66.41
2022-10-04T17:00:44.490Z,66.69
2022-10-04T17:03:04.593Z,67.31
2022-10-04T17:05:33.392Z,68.17
2022-10-04T17:07:52.801Z,67.79
2022-10-04T17:10:04.293Z,68.47
2022-10-04T17:12:18.116Z,67.57
2022-10-04T17:14:56.850Z,67.98
2022-10-04T17:17:07.300Z,68.07
2022-10-04T17:19:33.775Z,67.96
2022-10-04T17:21:46.126Z,68.00
2022-10-04T17:24:15.432Z,67.70
2022-10-04T17:26:30.805Z,68.09
2022-10-04T17:28:45.861Z,68.32
2022-10-04T17:30:55.598Z,68.59
2022-10-04T17:33:21.789Z,68.51
2022-10-04T17:35:57.243Z,70.06
2022-10-04T17:38:08.735Z,69.45
2022-10-04T17:40:30.011Z,69.99
2022-10-04T17:42:41.097Z,69.40
2022-10-04T17:44:57.529Z,70.34
2022-10-04T17:47:11.903Z,70.39
2022-10-04T17:49:44.025Z,69.66
2022-10-04T17:52:07.773Z,70.50
2022-10-04T17:54:33.714Z,70.43
2022-10-04T17:56:43.675Z,70.71
2022-10-04T17:58:51.863Z,71.15
2022-10-04T18:01:01.949Z,70.54
2022-10-04T18:03:16.167Z,71.24
2022-10-04T18:05:25.552Z,70.98
2022-10-04T18:07:33.687Z,70.97
2022-10-04T18:09:44.866Z,71.14
2022-10-04T18:11:52.021Z,72.01
2022-10-04T18:14:01.722Z,71.71
2022-10-04T18:16:15.150Z,71.42
2022-10-04T18:18:21.295Z,71.48
2022-10-04T18:20:30.507Z,72.14
2022-10-04T18:22:46.434Z,71.82
2022-10-04T18:25:12.684Z,72.45
2022-10-04T18:27:21.025Z,72.40
2022-10-04T18:29:39.156Z,71.90
2022-10-04T18:31:42.125Z,72.04
2022-10-04T18:33:51.046Z,72.03
2022-10-04T18:36:00.856Z,72.14
2022-10-04T18:38:24.276Z,71.69
2022-10-04T18:40:34.048Z,72.17
2022-10-04T18:42:38.214Z,72.31
2022-10-04T18:44:46.862Z,72.55
2022-10-04T18:46:56.990Z,72.69
2022-10-04T18:49:12.806Z,72.50
2022-10-04T18:51:26.015Z,73.04
2022-10-04T18:53:44.252Z,73.13
2022-10-04T18:55:58.164Z,73.55
2022-10-04T18:58:31.624Z,73.71
2022-10-04T19:00:58.341Z,73.29
2022-10-04T19:03:08.667Z,74.30
2022-10-04T19:05:17.449Z,74.01
2022-10-04T19:07:30.928Z,74.19
2022-10-04T19:09:48.625Z,74.94
2022-10-04T19:11:58.664Z,74.31
2022-10-04T19:14:09.225Z,74.50
2022-10-04T19:16:32.276Z,75.00
2022-10-04T19:18:47.871Z,74.69
2022-10-04T19:20:59.330Z,74.94
2022-10-04T19:23:15.486Z,74.98
2022-10-04T19:25:30.003Z,74.78
2022-10-04T19:27:38.720Z,75.15
2022-10-04T19:29:54.811Z,75.07
2022-10-04T19:32:01.139Z,75.38
2022-10-04T19:34:10.192Z,75.11
2022-10-04T19:36:33.239Z,74.90
2022-10-04T19:38:53.426Z,74.90
2022-10-04T19:41:03.869Z,75.38
2022-10-04T19:43:15.452Z,75.12
2022-10-04T19:45:33.427Z,75.12
2022-10-04T19:47:50.668Z,75.23
2022-10-04T19:50:01.909Z,75.07
2022-10-04T19:52:20.180Z,74.91
2022-10-04T19:54:31.960Z,75.38
2022-10-04T19:56:39.840Z,76.61
2022-10-04T19:58:46.025Z,76.42
2022-10-04T20:00:49.710Z,76.18
2022-10-04T20:02:52.634Z,75.88
2022-10-04T20:04:57.319Z,76.01
2022-10-04T20:07:01.058Z,76.47
2022-10-04T20:09:26.823Z,76.12
2022-10-04T20:11:48.724Z,76.35
2022-10-04T20:14:25.223Z,76.19
2022-10-04T20:16:57.824Z,76.22
2022-10-04T20:19:16.535Z,76.54
2022-10-04T20:21:27.315Z,76.06
2022-10-04T20:23:49.505Z,76.07
2022-10-04T20:26:03.852Z,76.38
2022-10-04T20:28:06.721Z,76.62
2022-10-04T20:30:14.669Z,76.49
2022-10-04T20:32:50.686Z,76.35
2022-10-04T20:34:55.944Z,76.98
2022-10-04T20:36:58.821Z,77.15
2022-10-04T20:39:02.386Z,77.21
2022-10-04T20:41:05.178Z,77.02
2022-10-04T20:43:27.310Z,76.94
2022-10-04T20:45:31.518Z,76.67
2022-10-04T20:47:43.363Z,76.94
2022-10-04T20:49:46.526Z,76.96
2022-10-04T20:51:51.183Z,76.58
2022-10-04T20:53:53.834Z,77.09
2022-10-04T20:56:12.250Z,77.26
2022-10-04T20:58:31.480Z,76.87
2022-10-04T21:00:35.635Z,76.92
2022-10-04T21:02:38.598Z,76.73
2022-10-04T21:04:44.178Z,76.91
2022-10-04T21:06:55.866Z,76.82
2022-10-04T21:08:59.197Z,76.90
2022-10-04T21:11:19.331Z,76.84
2022-10-04T21:13:44.637Z,76.99
2022-10-04T21:15:57.055Z,77.04
2022-10-04T21:18:02.697Z,77.10
2022-10-04T21:20:07.128Z,77.02
2022-10-04T21:22:31.818Z,77.23
2022-10-04T21:24:36.539Z,77.13
2022-10-04T21:26:39.550Z,77.32
2022-10-04T21:28:42.303Z,77.54
2022-10-04T21:30:45.061Z,77.22
2022-10-04T21:32:47.820Z,77.06
2022-10-04T21:34:53.845Z,76.85
2022-10-04T21:36:59.675Z,77.17
2022-10-04T21:39:03.906Z,77.10
2022-10-04T21:41:07.007Z,76.87
2022-10-04T21:43:09.781Z,77.01
2022-10-04T21:45:12.478Z,76.88
2022-10-04T21:47:15.325Z,76.71
2022-10-04T21:49:18.234Z,76.62
2022-10-04T21:51:21.278Z,76.83
2022-10-04T21:53:24.209Z,76.55
2022-10-04T21:55:28.320Z,76.80
2022-10-04T21:57:35.684Z,76.92
2022-10-04T21:59:39.998Z,76.66
2022-10-04T22:01:42.897Z,76.79
2022-10-04T22:03:45.692Z,76.90
2022-10-04T22:05:48.567Z,76.68
2022-10-04T22:07:54.388Z,76.68
2022-10-04T22:09:57.139Z,77.03
2022-10-04T22:12:04.443Z,76.80
2022-10-04T22:14:07.210Z,76.90
2022-10-04T22:16:10.498Z,77.12
2022-10-04T22:18:13.387Z,76.95
2022-10-04T22:20:16.127Z,76.94
2022-10-04T22:22:20.198Z,76.96
2022-10-04T22:24:22.944Z,76.97
2022-10-04T22:26:27.398Z,76.88
2022-10-04T22:28:31.956Z,76.87
2022-10-04T22:30:36.269Z,76.61
2022-10-04T22:32:39.189Z,76.86
2022-10-04T22:34:41.965Z,76.62
2022-10-04T22:36:46.002Z,77.34
2022-10-04T22:38:52.173Z,76.85
2022-10-04T22:40:54.965Z,76.99
2022-10-04T22:43:00.648Z,77.01
2022-10-04T22:45:10.287Z,77.10
2022-10-04T22:47:15.185Z,77.35
2022-10-04T22:49:18.800Z,77.45
2022-10-04T22:51:21.577Z,77.14
2022-10-04T22:53:25.030Z,77.27
2022-10-04T22:55:27.847Z,77.12
2022-10-04T22:57:31.541Z,76.59
2022-10-04T22:59:38.720Z,76.78
2022-10-04T23:01:44.904Z,77.08
2022-10-04T23:03:49.498Z,77.29
2022-10-04T23:05:52.389Z,77.28
2022-10-04T23:07:55.165Z,77.11
2022-10-04T23:09:57.873Z,77.33
2022-10-04T23:12:00.711Z,77.03
2022-10-04T23:14:03.482Z,77.57
2022-10-04T23:16:13.945Z,77.62
2022-10-04T23:18:19.499Z,77.66
2022-10-04T23:20:23.030Z,77.51
2022-10-04T23:22:28.750Z,77.38
2022-10-04T23:24:31.813Z,77.60
2022-10-04T23:26:38.593Z,77.21
2022-10-04T23:28:41.487Z,77.50
2022-10-04T23:30:45.458Z,77.67
2022-10-04T23:32:49.898Z,77.67
2022-10-04T23:34:56.829Z,77.54
2022-10-04T23:37:00.058Z,77.11
2022-10-04T23:39:02.881Z,77.14
2022-10-04T23:41:10.643Z,77.31
2022-10-04T23:43:18.109Z,77.45
2022-10-04T23:45:27.430Z,77.36
2022-10-04T23:47:33.994Z,77.47
2022-10-04T23:49:36.835Z,77.38
2022-10-04T23:51:40.990Z,77.25
2022-10-04T23:53:45.632Z,77.66
2022-10-04T23:55:48.494Z,77.98
2022-10-04T23:57:51.717Z,77.61
2022-10-04T23:59:54.840Z,77.44
